Time;durP1;ratioP1;P1;durP2;ratioP2;P2;SDS_P1;SDS_P2;PMS_P1;PMS_P2;Temp;Humidity;BMP_temperature;BMP_pressure;BME280_temperature;BME280_humidity;BME280_pressure;Samples;Min_cycle;Max_cycle;Signal;HPM_P1;HPM_P2
2023/09/06 00:01:05;;;;;;;2.30;2.10;;;;;;;;;;5072285;28;20205;-54
2023/09/06 00:03:32;;;;;;;2.93;2.27;;;;;;;;;;5071550;28;20220;-53
2023/09/06 00:05:58;;;;;;;2.23;2.03;;;;;;;;;;5068188;28;20206;-53
2023/09/06 00:08:24;;;;;;;3.10;2.00;;;;;;;;;;5071961;28;20202;-55
2023/09/06 00:10:50;;;;;;;2.00;1.80;;;;;;;;;;5072019;28;20245;-53
2023/09/06 00:13:18;;;;;;;4.00;2.20;;;;;;;;;;5072073;28;20196;-54
2023/09/06 00:15:44;;;;;;;2.00;1.80;;;;;;;;;;5071881;28;20224;-53
2023/09/06 00:18:10;;;;;;;2.30;2.10;;;;;;;;;;5071233;28;20198;-53
2023/09/06 00:20:38;;;;;;;3.10;2.20;;;;;;;;;;5071782;28;20211;-53
2023/09/06 00:23:04;;;;;;;2.83;2.50;;;;;;;;;;5071776;28;20227;-53
2023/09/06 00:25:31;;;;;;;2.40;2.20;;;;;;;;;;5071697;28;20199;-53
2023/09/06 00:27:58;;;;;;;2.30;2.10;;;;;;;;;;5070520;28;20195;-53
2023/09/06 00:30:26;;;;;;;2.50;2.17;;;;;;;;;;5071828;28;20794;-53
2023/09/06 00:32:52;;;;;;;3.10;2.23;;;;;;;;;;5071827;28;20206;-53
2023/09/06 00:35:19;;;;;;;2.73;2.40;;;;;;;;;;5071551;28;20252;-53
2023/09/06 00:37:45;;;;;;;2.53;2.10;;;;;;;;;;5071404;28;20239;-53
2023/09/06 00:40:18;;;;;;;2.30;2.10;;;;;;;;;;5071841;28;20202;-53
2023/09/06 00:42:46;;;;;;;2.40;2.20;;;;;;;;;;5071486;28;20234;-53
2023/09/06 00:45:12;;;;;;;3.23;1.97;;;;;;;;;;5071687;28;20357;-53
2023/09/06 00:47:42;;;;;;;2.40;2.13;;;;;;;;;;5071517;28;20712;-53
2023/09/06 00:50:10;;;;;;;2.43;1.93;;;;;;;;;;5071723;28;20207;-54
2023/09/06 00:52:36;;;;;;;2.30;2.10;;;;;;;;;;5071312;28;20206;-54
2023/09/06 00:55:03;;;;;;;2.40;2.20;;;;;;;;;;5071469;28;20198;-54
2023/09/06 00:57:30;;;;;;;2.37;2.10;;;;;;;;;;5071357;28;20198;-54
2023/09/06 00:59:59;;;;;;;3.40;2.03;;;;;;;;;;5071446;28;20560;-53
2023/09/06 01:02:26;;;;;;;3.03;2.10;;;;;;;;;;5071304;28;20255;-53
2023/09/06 01:04:53;;;;;;;2.50;2.30;;;;;;;;;;5071326;28;20205;-53
2023/09/06 01:07:20;;;;;;;2.67;2.07;;;;;;;;;;5071178;28;20253;-53
2023/09/06 01:09:46;;;;;;;2.67;2.43;;;;;;;;;;5070091;28;20199;-53
2023/09/06 01:12:13;;;;;;;2.87;1.87;;;;;;;;;;5071407;28;20198;-53
2023/09/06 01:14:40;;;;;;;2.70;2.40;;;;;;;;;;5071258;28;20233;-53
2023/09/06 01:17:07;;;;;;;2.37;2.00;;;;;;;;;;5071270;28;20198;-54
2023/09/06 01:19:33;;;;;;;2.73;2.23;;;;;;;;;;5071120;28;20190;-54
2023/09/06 01:22:04;;;;;;;3.27;2.30;;;;;;;;;;5071046;28;20183;-54
2023/09/06 01:24:32;;;;;;;2.23;2.03;;;;;;;;;;5071099;28;20719;-54
2023/09/06 01:26:58;;;;;;;3.53;1.97;;;;;;;;;;5071205;28;20198;-54
2023/09/06 01:29:24;;;;;;;4.50;2.40;;;;;;;;;;5073625;28;20194;-54
2023/09/06 01:31:50;;;;;;;3.33;2.20;;;;;;;;;;5074995;28;20564;-54
2023/09/06 01:34:16;;;;;;;2.90;2.60;;;;;;;;;;5074994;28;20294;-54
2023/09/06 01:36:43;;;;;;;2.60;2.40;;;;;;;;;;5075024;28;20194;-53
2023/09/06 01:39:09;;;;;;;2.77;2.30;;;;;;;;;;5074987;28;20685;-53
2023/09/06 01:41:37;;;;;;;3.60;2.40;;;;;;;;;;5074725;28;20744;-53
2023/09/06 01:44:03;;;;;;;2.87;2.10;;;;;;;;;;5074763;28;20240;-53
2023/09/06 01:46:29;;;;;;;2.73;2.33;;;;;;;;;;5074809;28;20285;-53
2023/09/06 01:48:55;;;;;;;6.40;2.50;;;;;;;;;;5074951;28;20198;-53
2023/09/06 01:51:22;;;;;;;2.80;2.30;;;;;;;;;;5074778;28;20199;-53
2023/09/06 01:53:48;;;;;;;2.70;2.27;;;;;;;;;;5074650;28;20251;-53
2023/09/06 01:56:14;;;;;;;4.00;2.40;;;;;;;;;;5074585;28;20198;-53
2023/09/06 01:58:42;;;;;;;3.50;2.50;;;;;;;;;;5074585;28;20202;-54
2023/09/06 02:01:09;;;;;;;2.43;2.10;;;;;;;;;;5074814;28;20198;-54
2023/09/06 02:03:35;;;;;;;3.17;2.20;;;;;;;;;;5074238;28;20220;-54
2023/09/06 02:06:03;;;;;;;2.40;2.20;;;;;;;;;;5074494;28;20222;-54
2023/09/06 02:08:29;;;;;;;2.83;2.17;;;;;;;;;;5074172;28;20653;-54
2023/09/06 02:10:55;;;;;;;3.20;2.57;;;;;;;;;;5074439;28;20708;-54
2023/09/06 02:13:21;;;;;;;3.33;2.00;;;;;;;;;;5074231;28;20192;-54
2023/09/06 02:15:48;;;;;;;4.37;2.27;;;;;;;;;;5074345;28;20263;-54
2023/09/06 02:18:17;;;;;;;2.97;2.37;;;;;;;;;;5074401;28;20291;-54
2023/09/06 02:20:44;;;;;;;2.50;2.30;;;;;;;;;;5073963;28;20197;-55
2023/09/06 02:23:10;;;;;;;2.43;2.23;;;;;;;;;;5074208;28;20225;-53
2023/09/06 02:25:36;;;;;;;2.67;2.27;;;;;;;;;;5073982;28;20212;-53
2023/09/06 02:28:07;;;;;;;2.47;1.97;;;;;;;;;;5074046;28;20203;-54
2023/09/06 02:30:37;;;;;;;2.67;2.47;;;;;;;;;;5073837;28;20292;-54
2023/09/06 02:33:05;;;;;;;3.80;2.20;;;;;;;;;;5074136;28;20285;-54
2023/09/06 02:35:35;;;;;;;2.37;2.17;;;;;;;;;;5073655;28;20228;-54
2023/09/06 02:38:01;;;;;;;2.87;2.40;;;;;;;;;;5073778;28;20675;-54
2023/09/06 02:40:27;;;;;;;2.90;2.27;;;;;;;;;;5072832;28;20679;-54
2023/09/06 02:42:53;;;;;;;2.60;2.40;;;;;;;;;;5073875;28;20468;-55
2023/09/06 02:45:22;;;;;;;2.50;2.30;;;;;;;;;;5073613;28;20191;-54
2023/09/06 02:47:51;;;;;;;3.80;2.33;;;;;;;;;;5073722;28;20280;-54
2023/09/06 02:50:22;;;;;;;2.57;2.20;;;;;;;;;;5073579;28;20456;-54
2023/09/06 02:52:50;;;;;;;2.50;1.80;;;;;;;;;;5073580;28;20282;-54
2023/09/06 02:55:16;;;;;;;2.30;2.10;;;;;;;;;;5073418;28;20750;-54
2023/09/06 02:57:43;;;;;;;3.50;2.20;;;;;;;;;;5073196;28;20203;-54
2023/09/06 03:00:24;;;;;;;2.43;2.23;;;;;;;;;;5073516;28;20280;-54
2023/09/06 03:02:52;;;;;;;2.70;2.50;;;;;;;;;;5073233;28;20211;-54
2023/09/06 03:05:20;;;;;;;2.67;2.10;;;;;;;;;;5073183;28;20242;-54
2023/09/06 03:07:48;;;;;;;2.83;2.60;;;;;;;;;;5073189;28;20213;-54
2023/09/06 03:10:15;;;;;;;3.03;2.30;;;;;;;;;;5073259;28;20259;-54
2023/09/06 03:12:41;;;;;;;2.33;2.13;;;;;;;;;;5073208;28;20286;-54
2023/09/06 03:15:08;;;;;;;2.50;2.20;;;;;;;;;;5073271;28;20279;-54
2023/09/06 03:17:36;;;;;;;2.83;2.10;;;;;;;;;;5072997;28;20199;-54
2023/09/06 03:20:18;;;;;;;2.83;2.30;;;;;;;;;;5072912;28;20662;-54
2023/09/06 03:22:46;;;;;;;3.70;2.20;;;;;;;;;;5072821;28;20221;-54
2023/09/06 03:25:14;;;;;;;2.60;2.30;;;;;;;;;;5073043;28;20208;-54
2023/09/06 03:27:42;;;;;;;3.37;2.57;;;;;;;;;;5072899;28;20275;-54
2023/09/06 03:30:08;;;;;;;3.40;2.10;;;;;;;;;;5072802;28;20238;-54
2023/09/06 03:32:34;;;;;;;2.40;2.20;;;;;;;;;;5072847;28;20246;-54
2023/09/06 03:35:00;;;;;;;2.20;2.00;;;;;;;;;;5072681;28;20190;-54
2023/09/06 03:37:28;;;;;;;2.60;2.40;;;;;;;;;;5072551;28;20460;-54
2023/09/06 03:39:56;;;;;;;2.97;2.50;;;;;;;;;;5072799;28;20207;-54
2023/09/06 03:42:23;;;;;;;3.60;2.47;;;;;;;;;;5072559;28;20223;-54
2023/09/06 03:44:49;;;;;;;2.60;2.40;;;;;;;;;;5072367;28;20720;-54
2023/09/06 03:47:16;;;;;;;2.87;2.50;;;;;;;;;;5072520;28;20548;-54
2023/09/06 03:49:43;;;;;;;3.30;3.00;;;;;;;;;;5072268;28;20567;-54
2023/09/06 03:52:16;;;;;;;2.70;2.50;;;;;;;;;;5072376;28;20201;-54
2023/09/06 03:54:42;;;;;;;2.70;2.50;;;;;;;;;;5072312;28;20199;-54
2023/09/06 03:57:12;;;;;;;2.83;2.40;;;;;;;;;;5072471;28;20207;-54
2023/09/06 03:59:40;;;;;;;2.60;2.40;;;;;;;;;;5072268;28;20204;-54
2023/09/06 04:02:13;;;;;;;3.03;2.60;;;;;;;;;;5072203;28;20195;-54
2023/09/06 04:04:39;;;;;;;6.33;3.00;;;;;;;;;;5072144;28;20261;-54
2023/09/06 04:07:07;;;;;;;4.20;3.10;;;;;;;;;;5072148;28;20220;-54
2023/09/06 04:09:37;;;;;;;3.90;3.37;;;;;;;;;;5071917;28;20208;-54
2023/09/06 04:12:05;;;;;;;3.30;2.87;;;;;;;;;;5071940;28;20274;-54
2023/09/06 04:14:38;;;;;;;3.40;2.97;;;;;;;;;;5071778;28;20195;-54
2023/09/06 04:17:07;;;;;;;3.73;3.00;;;;;;;;;;5072003;28;20217;-54
2023/09/06 04:19:34;;;;;;;3.73;2.80;;;;;;;;;;5071707;28;20201;-54
2023/09/06 04:22:01;;;;;;;2.87;2.60;;;;;;;;;;5071838;28;20200;-54
2023/09/06 04:24:27;;;;;;;3.13;2.77;;;;;;;;;;5071708;28;20293;-54
2023/09/06 04:26:53;;;;;;;3.10;2.80;;;;;;;;;;5071884;28;20203;-54
2023/09/06 04:29:19;;;;;;;3.63;2.90;;;;;;;;;;5071790;28;20208;-54
2023/09/06 04:31:47;;;;;;;3.27;2.97;;;;;;;;;;5071875;28;20211;-54
2023/09/06 04:34:13;;;;;;;3.57;2.63;;;;;;;;;;5071775;28;20200;-54
2023/09/06 04:36:39;;;;;;;3.73;2.90;;;;;;;;;;5071745;28;20208;-54
2023/09/06 04:39:07;;;;;;;3.33;2.80;;;;;;;;;;5071522;28;20327;-54
2023/09/06 04:41:34;;;;;;;4.80;3.13;;;;;;;;;;5071289;28;20200;-54
2023/09/06 04:44:00;;;;;;;5.13;3.67;;;;;;;;;;5070905;28;20710;-54
2023/09/06 04:46:26;;;;;;;4.13;3.10;;;;;;;;;;5070648;28;20189;-54
2023/09/06 04:48:55;;;;;;;5.40;2.97;;;;;;;;;;5071536;28;20247;-54
2023/09/06 04:51:21;;;;;;;5.27;3.50;;;;;;;;;;5071407;28;20203;-54
2023/09/06 04:53:48;;;;;;;4.07;3.37;;;;;;;;;;5071107;28;20218;-54
2023/09/06 04:56:16;;;;;;;5.07;3.70;;;;;;;;;;5071374;28;20716;-54
2023/09/06 04:58:42;;;;;;;5.83;3.33;;;;;;;;;;5071465;28;20725;-54
2023/09/06 05:01:09;;;;;;;5.50;3.27;;;;;;;;;;5071382;28;20674;-54
2023/09/06 05:03:37;;;;;;;4.63;3.53;;;;;;;;;;5070381;28;20706;-54
2023/09/06 05:06:04;;;;;;;5.70;4.50;;;;;;;;;;5071245;28;20275;-54
2023/09/06 05:08:32;;;;;;;4.70;3.50;;;;;;;;;;5071256;28;20215;-54
2023/09/06 05:10:58;;;;;;;4.93;3.50;;;;;;;;;;5071079;28;20204;-55
2023/09/06 05:13:24;;;;;;;4.40;3.37;;;;;;;;;;5071273;28;20195;-54
2023/09/06 05:15:50;;;;;;;7.33;4.13;;;;;;;;;;5070948;28;20621;-54
2023/09/06 05:18:16;;;;;;;6.03;3.97;;;;;;;;;;5071079;28;20386;-56
2023/09/06 05:20:42;;;;;;;4.97;3.60;;;;;;;;;;5071080;28;20570;-55
2023/09/06 05:23:10;;;;;;;4.80;4.00;;;;;;;;;;5071054;28;20699;-53
2023/09/06 05:25:36;;;;;;;4.23;3.50;;;;;;;;;;5070947;28;20207;-54
2023/09/06 05:28:04;;;;;;;4.53;3.30;;;;;;;;;;5071138;28;20209;-55
2023/09/06 05:30:31;;;;;;;5.40;3.43;;;;;;;;;;5070950;28;20196;-56
2023/09/06 05:32:58;;;;;;;3.53;3.00;;;;;;;;;;5070935;28;20674;-54
2023/09/06 05:35:24;;;;;;;4.23;3.23;;;;;;;;;;5070844;28;20679;-55
2023/09/06 05:37:50;;;;;;;3.00;2.70;;;;;;;;;;5070437;28;20235;-55
2023/09/06 05:40:22;;;;;;;4.00;3.00;;;;;;;;;;5070835;28;20271;-55
2023/09/06 05:42:48;;;;;;;3.30;2.80;;;;;;;;;;5070678;28;20223;-56
2023/09/06 05:45:14;;;;;;;5.93;3.17;;;;;;;;;;5070808;28;20241;-55
2023/09/06 05:47:40;;;;;;;3.47;2.90;;;;;;;;;;5070931;28;20202;-56
2023/09/06 05:50:08;;;;;;;5.13;2.77;;;;;;;;;;5070891;28;20186;-54
2023/09/06 05:52:34;;;;;;;4.03;2.60;;;;;;;;;;5070709;28;20274;-54
2023/09/06 05:55:01;;;;;;;3.73;3.07;;;;;;;;;;5070744;28;20193;-54
2023/09/06 05:57:28;;;;;;;5.90;3.10;;;;;;;;;;5070794;28;20197;-54
2023/09/06 05:59:54;;;;;;;3.20;2.90;;;;;;;;;;5071055;28;20259;-54
2023/09/06 06:02:20;;;;;;;4.83;3.47;;;;;;;;;;5070857;28;20193;-54
2023/09/06 06:04:46;;;;;;;3.10;2.80;;;;;;;;;;5070366;28;20572;-55
2023/09/06 06:07:13;;;;;;;2.93;2.60;;;;;;;;;;5070692;28;20226;-54
2023/09/06 06:09:39;;;;;;;3.70;2.70;;;;;;;;;;5070601;28;20195;-54
2023/09/06 06:12:05;;;;;;;4.30;2.70;;;;;;;;;;5070601;28;20234;-54
2023/09/06 06:14:33;;;;;;;3.60;2.73;;;;;;;;;;5070440;28;20199;-54
2023/09/06 06:16:59;;;;;;;2.80;2.37;;;;;;;;;;5073470;28;20241;-54
2023/09/06 06:19:25;;;;;;;3.10;2.80;;;;;;;;;;5074001;28;20665;-55
2023/09/06 06:21:51;;;;;;;2.80;2.50;;;;;;;;;;5074370;28;20274;-55
2023/09/06 06:24:17;;;;;;;3.87;2.60;;;;;;;;;;5073939;28;20696;-55
2023/09/06 06:26:43;;;;;;;3.33;2.80;;;;;;;;;;5073850;28;20731;-55
2023/09/06 06:29:09;;;;;;;5.27;2.83;;;;;;;;;;5074184;28;20207;-55
2023/09/06 06:31:36;;;;;;;3.87;2.87;;;;;;;;;;5073830;28;20244;-55
2023/09/06 06:34:03;;;;;;;4.93;2.90;;;;;;;;;;5073670;28;20631;-55
2023/09/06 06:36:31;;;;;;;3.90;2.77;;;;;;;;;;5073754;28;20191;-55
2023/09/06 06:38:57;;;;;;;3.60;2.83;;;;;;;;;;5073629;28;20243;-55
2023/09/06 06:41:23;;;;;;;3.33;2.77;;;;;;;;;;5073887;28;20194;-55
2023/09/06 06:43:49;;;;;;;5.33;2.63;;;;;;;;;;5073421;28;20227;-55
2023/09/06 06:46:26;;;;;;;3.30;2.83;;;;;;;;;;5073834;28;20201;-55
2023/09/06 06:48:53;;;;;;;7.17;2.87;;;;;;;;;;5073428;28;20654;-55
2023/09/06 06:51:19;;;;;;;5.20;3.30;;;;;;;;;;5073521;28;20203;-55
2023/09/06 06:53:45;;;;;;;4.37;2.83;;;;;;;;;;5073233;28;20569;-55
2023/09/06 06:56:11;;;;;;;6.80;2.90;;;;;;;;;;5073493;28;20204;-56
2023/09/06 06:58:37;;;;;;;6.73;2.93;;;;;;;;;;5073306;28;20195;-55
2023/09/06 07:01:03;;;;;;;6.13;2.90;;;;;;;;;;5073394;28;20199;-55
2023/09/06 07:03:29;;;;;;;3.97;2.50;;;;;;;;;;5073116;28;20582;-55
2023/09/06 07:05:58;;;;;;;5.03;2.80;;;;;;;;;;5073509;28;20200;-55
2023/09/06 07:08:26;;;;;;;3.03;2.30;;;;;;;;;;5073456;28;20704;-55
2023/09/06 07:10:52;;;;;;;4.87;2.87;;;;;;;;;;5073441;28;20223;-55
2023/09/06 07:13:18;;;;;;;3.43;2.77;;;;;;;;;;5073060;28;20229;-55
2023/09/06 07:15:44;;;;;;;2.90;2.27;;;;;;;;;;5072964;28;20286;-55
2023/09/06 07:18:12;;;;;;;3.50;2.00;;;;;;;;;;5073115;28;20607;-55
2023/09/06 07:20:38;;;;;;;3.10;2.30;;;;;;;;;;5073087;28;20277;-55
2023/09/06 07:23:06;;;;;;;4.63;2.63;;;;;;;;;;5072890;28;20240;-55
2023/09/06 07:25:32;;;;;;;2.33;2.03;;;;;;;;;;5072846;28;20674;-54
2023/09/06 07:27:59;;;;;;;2.73;2.10;;;;;;;;;;5072695;28;20299;-54
2023/09/06 07:30:25;;;;;;;3.87;2.30;;;;;;;;;;5072898;28;20201;-56
2023/09/06 07:32:51;;;;;;;2.77;2.10;;;;;;;;;;5072741;28;20250;-55
2023/09/06 07:35:18;;;;;;;3.40;2.20;;;;;;;;;;5072516;28;20198;-58
2023/09/06 07:37:44;;;;;;;3.97;2.30;;;;;;;;;;5072422;28;20315;-57
2023/09/06 07:40:12;;;;;;;5.73;2.30;;;;;;;;;;5072736;28;20677;-54
2023/09/06 07:42:38;;;;;;;3.90;2.17;;;;;;;;;;5072446;28;20304;-58
2023/09/06 07:45:05;;;;;;;4.43;2.37;;;;;;;;;;5072370;28;20227;-58
2023/09/06 07:47:31;;;;;;;3.53;2.27;;;;;;;;;;5072338;28;20447;-57
2023/09/06 07:49:57;;;;;;;2.90;2.40;;;;;;;;;;5072742;28;20284;-56
2023/09/06 07:52:23;;;;;;;2.37;2.17;;;;;;;;;;5072567;28;20675;-56
2023/09/06 07:54:49;;;;;;;2.50;2.30;;;;;;;;;;5072125;28;20287;-55
2023/09/06 07:57:16;;;;;;;3.97;2.23;;;;;;;;;;5072171;28;20198;-54
2023/09/06 07:59:42;;;;;;;2.87;1.90;;;;;;;;;;5072329;28;20297;-54
2023/09/06 08:02:08;;;;;;;3.97;2.00;;;;;;;;;;5067139;28;20233;-56
2023/09/06 08:04:34;;;;;;;7.57;2.47;;;;;;;;;;5069468;28;20234;-55
2023/09/06 08:07:00;;;;;;;5.30;2.13;;;;;;;;;;5072086;28;20249;-55
2023/09/06 08:09:26;;;;;;;2.00;1.80;;;;;;;;;;5072087;28;20203;-55
2023/09/06 08:11:52;;;;;;;6.53;2.40;;;;;;;;;;5071933;28;20200;-56
2023/09/06 08:14:20;;;;;;;3.33;1.90;;;;;;;;;;5071889;28;20206;-55
2023/09/06 08:16:46;;;;;;;3.87;2.30;;;;;;;;;;5071464;28;20199;-55
2023/09/06 08:19:12;;;;;;;4.33;2.10;;;;;;;;;;5070795;28;20195;-55
2023/09/06 08:21:38;;;;;;;3.20;2.20;;;;;;;;;;5071172;28;20562;-55
2023/09/06 08:24:04;;;;;;;4.23;2.20;;;;;;;;;;5071710;28;20224;-55
2023/09/06 08:26:31;;;;;;;4.00;2.50;;;;;;;;;;5071455;28;20247;-55
2023/09/06 08:28:57;;;;;;;2.70;1.97;;;;;;;;;;5067889;28;20211;-54
2023/09/06 08:31:24;;;;;;;3.97;2.40;;;;;;;;;;5071863;28;20210;-55
2023/09/06 08:33:50;;;;;;;2.77;1.67;;;;;;;;;;5071392;28;20637;-56
2023/09/06 08:36:16;;;;;;;2.33;1.80;;;;;;;;;;5071661;28;20297;-56
2023/09/06 08:38:42;;;;;;;2.30;1.80;;;;;;;;;;5070529;28;20234;-55
2023/09/06 08:41:09;;;;;;;2.93;1.70;;;;;;;;;;5071793;28;20223;-55
2023/09/06 08:43:36;;;;;;;3.47;2.10;;;;;;;;;;5071616;28;20696;-55
2023/09/06 08:46:03;;;;;;;5.47;2.40;;;;;;;;;;5071945;28;20194;-55
2023/09/06 08:48:32;;;;;;;2.50;1.80;;;;;;;;;;5071765;28;20210;-55
2023/09/06 08:50:59;;;;;;;3.80;2.00;;;;;;;;;;5071850;28;20202;-55
2023/09/06 08:53:26;;;;;;;3.27;1.87;;;;;;;;;;5071743;28;20796;-55
2023/09/06 08:55:52;;;;;;;3.20;1.93;;;;;;;;;;5071777;28;20203;-55
2023/09/06 08:58:19;;;;;;;5.67;2.00;;;;;;;;;;5071672;28;20230;-55
2023/09/06 09:00:46;;;;;;;2.63;2.00;;;;;;;;;;5071538;28;20199;-55
2023/09/06 09:03:12;;;;;;;2.80;1.90;;;;;;;;;;5071569;28;20665;-55
2023/09/06 09:05:39;;;;;;;4.07;1.97;;;;;;;;;;5071466;28;20196;-54
2023/09/06 09:08:08;;;;;;;3.27;1.87;;;;;;;;;;5071571;28;20198;-55
2023/09/06 09:10:34;;;;;;;2.43;1.90;;;;;;;;;;5072016;28;20210;-55
2023/09/06 09:13:00;;;;;;;3.87;1.90;;;;;;;;;;5071393;28;20707;-56
2023/09/06 09:15:26;;;;;;;6.30;2.07;;;;;;;;;;5071863;28;20622;-55
2023/09/06 09:17:53;;;;;;;2.77;2.00;;;;;;;;;;5071305;28;20677;-55
2023/09/06 09:20:19;;;;;;;2.30;1.80;;;;;;;;;;5071432;28;20200;-55
2023/09/06 09:22:47;;;;;;;3.13;1.73;;;;;;;;;;5071442;28;20612;-55
2023/09/06 09:25:16;;;;;;;4.57;1.80;;;;;;;;;;5071377;28;20308;-56
2023/09/06 09:27:44;;;;;;;2.55;1.80;;;;;;;;;;5071310;28;20202;-56
2023/09/06 09:30:11;;;;;;;2.90;1.60;;;;;;;;;;5071349;28;20191;-54
2023/09/06 09:32:38;;;;;;;4.43;2.00;;;;;;;;;;5071457;28;20222;-53
2023/09/06 09:35:04;;;;;;;4.40;1.80;;;;;;;;;;5071304;28;20191;-53
2023/09/06 09:37:30;;;;;;;4.40;1.97;;;;;;;;;;5071103;28;20207;-55
2023/09/06 09:39:58;;;;;;;4.23;1.80;;;;;;;;;;5071318;28;20206;-54
2023/09/06 09:42:24;;;;;;;2.90;1.70;;;;;;;;;;5071268;28;20234;-55
2023/09/06 09:44:59;;;;;;;6.73;1.80;;;;;;;;;;5070910;28;20265;-55
2023/09/06 09:47:26;;;;;;;2.23;1.67;;;;;;;;;;5071321;28;20289;-55
2023/09/06 09:49:53;;;;;;;4.03;1.80;;;;;;;;;;5072360;28;20199;-55
2023/09/06 09:52:19;;;;;;;3.90;1.90;;;;;;;;;;5074805;28;20199;-55
2023/09/06 09:54:49;;;;;;;1.67;1.50;;;;;;;;;;5074850;28;20198;-54
2023/09/06 09:57:19;;;;;;;4.17;2.00;;;;;;;;;;5074881;28;20205;-55
2023/09/06 09:59:46;;;;;;;4.70;1.93;;;;;;;;;;5074642;28;20581;-55
2023/09/06 10:02:15;;;;;;;2.53;1.90;;;;;;;;;;5074796;28;20218;-55
2023/09/06 10:04:42;;;;;;;4.67;1.97;;;;;;;;;;5074565;28;20235;-54
2023/09/06 10:07:09;;;;;;;3.63;1.97;;;;;;;;;;5074695;28;20205;-60
2023/09/06 10:09:39;;;;;;;3.43;1.60;;;;;;;;;;5074481;28;20578;-55
2023/09/06 10:12:07;;;;;;;5.27;1.90;;;;;;;;;;5074631;28;20266;-55
2023/09/06 10:14:35;;;;;;;2.90;1.63;;;;;;;;;;5074545;28;20197;-55
2023/09/06 10:17:02;;;;;;;4.70;1.83;;;;;;;;;;5074597;28;20285;-53
2023/09/06 10:19:29;;;;;;;5.57;2.00;;;;;;;;;;5074352;28;20203;-53
2023/09/06 10:21:55;;;;;;;3.20;1.80;;;;;;;;;;5074536;28;20287;-55
2023/09/06 10:24:23;;;;;;;1.97;1.67;;;;;;;;;;5074344;28;20281;-54
2023/09/06 10:26:49;;;;;;;1.93;1.67;;;;;;;;;;5074215;28;20220;-54
2023/09/06 10:29:19;;;;;;;6.00;1.70;;;;;;;;;;5074315;28;20282;-55
2023/09/06 10:31:53;;;;;;;4.47;1.77;;;;;;;;;;5074070;28;20207;-54
2023/09/06 10:34:20;;;;;;;2.77;1.70;;;;;;;;;;5073989;28;20616;-54
2023/09/06 10:36:53;;;;;;;2.77;1.80;;;;;;;;;;5074155;28;20290;-55
2023/09/06 10:39:21;;;;;;;2.07;1.83;;;;;;;;;;5074062;28;20791;-55
2023/09/06 10:42:05;;;;;;;2.57;1.70;;;;;;;;;;5073869;28;20191;-55
2023/09/06 10:44:51;;;;;;;2.60;1.53;;;;;;;;;;5073969;28;20227;-55
2023/09/06 10:47:26;;;;;;;3.93;1.90;;;;;;;;;;5073923;28;20201;-54
2023/09/06 10:50:07;;;;;;;3.40;1.70;;;;;;;;;;5073895;28;20207;-54
2023/09/06 10:52:41;;;;;;;3.10;1.60;;;;;;;;;;5073905;28;20626;-55
2023/09/06 10:55:13;;;;;;;1.90;1.57;;;;;;;;;;5073876;28;20278;-54
2023/09/06 10:57:46;;;;;;;4.10;1.60;;;;;;;;;;5073869;28;20202;-54
2023/09/06 11:00:18;;;;;;;2.83;1.70;;;;;;;;;;5073808;28;20192;-55
2023/09/06 11:03:05;;;;;;;2.50;1.50;;;;;;;;;;5072787;28;20206;-54
2023/09/06 11:05:35;;;;;;;4.90;1.80;;;;;;;;;;5073242;28;20221;-55
2023/09/06 11:08:01;;;;;;;3.10;1.80;;;;;;;;;;5073574;28;20264;-55
2023/09/06 11:10:27;;;;;;;3.67;1.80;;;;;;;;;;5073605;28;20194;-54
2023/09/06 11:12:54;;;;;;;2.50;1.80;;;;;;;;;;5073715;28;20202;-55
2023/09/06 11:15:20;;;;;;;3.00;1.60;;;;;;;;;;5073470;28;20229;-54
2023/09/06 11:17:48;;;;;;;3.70;1.60;;;;;;;;;;5073270;28;20262;-55
2023/09/06 11:20:16;;;;;;;2.23;1.60;;;;;;;;;;5073389;28;20303;-54
2023/09/06 11:22:48;;;;;;;3.87;1.60;;;;;;;;;;5073233;28;20203;-54
2023/09/06 11:25:17;;;;;;;3.87;1.60;;;;;;;;;;5073237;28;20240;-54
2023/09/06 11:27:45;;;;;;;4.33;1.90;;;;;;;;;;5072982;28;20224;-54
2023/09/06 11:30:15;;;;;;;2.13;1.47;;;;;;;;;;5072810;28;20222;-53
2023/09/06 11:32:44;;;;;;;2.30;1.80;;;;;;;;;;5073037;28;20603;-53
2023/09/06 11:35:13;;;;;;;4.30;1.83;;;;;;;;;;5073122;28;20202;-54
2023/09/06 11:37:44;;;;;;;2.40;1.50;;;;;;;;;;5072805;28;20292;-54
2023/09/06 11:40:15;;;;;;;5.10;1.60;;;;;;;;;;5073273;28;20199;-54
2023/09/06 11:42:41;;;;;;;6.33;2.07;;;;;;;;;;5072811;28;20223;-54
2023/09/06 11:45:09;;;;;;;3.53;1.83;;;;;;;;;;5072648;28;20231;-54
2023/09/06 11:47:37;;;;;;;3.90;2.10;;;;;;;;;;5072601;28;20274;-53
2023/09/06 11:50:06;;;;;;;1.60;1.50;;;;;;;;;;5072771;28;20214;-54
2023/09/06 11:52:34;;;;;;;3.47;1.67;;;;;;;;;;5072604;28;20657;-54
2023/09/06 11:55:05;;;;;;;2.13;1.70;;;;;;;;;;5072444;28;20666;-54
2023/09/06 11:57:31;;;;;;;3.20;1.80;;;;;;;;;;5072285;28;20224;-55
2023/09/06 11:59:57;;;;;;;3.67;1.87;;;;;;;;;;5072126;28;20203;-54
2023/09/06 12:02:26;;;;;;;2.73;1.70;;;;;;;;;;5070396;28;20242;-54
2023/09/06 12:04:53;;;;;;;3.00;1.80;;;;;;;;;;5071721;28;20722;-54
2023/09/06 12:07:23;;;;;;;5.67;1.80;;;;;;;;;;5071879;28;20198;-55
2023/09/06 12:09:51;;;;;;;4.63;1.60;;;;;;;;;;5071691;28;20199;-55
2023/09/06 12:12:17;;;;;;;3.37;1.80;;;;;;;;;;5071840;28;20249;-54
2023/09/06 12:14:43;;;;;;;3.77;1.53;;;;;;;;;;5071713;28;20677;-54
2023/09/06 12:17:11;;;;;;;4.40;1.60;;;;;;;;;;5071916;28;20198;-55
2023/09/06 12:19:37;;;;;;;3.33;1.70;;;;;;;;;;5071588;28;20203;-54
2023/09/06 12:22:05;;;;;;;3.97;1.70;;;;;;;;;;5071519;28;20677;-54
2023/09/06 12:24:33;;;;;;;2.47;1.70;;;;;;;;;;5071485;28;20230;-54
2023/09/06 12:27:00;;;;;;;4.50;1.80;;;;;;;;;;5071441;28;20228;-54
2023/09/06 12:29:26;;;;;;;3.50;2.00;;;;;;;;;;5071654;28;20212;-54
2023/09/06 12:31:53;;;;;;;3.07;1.87;;;;;;;;;;5071426;28;20223;-54
2023/09/06 12:34:19;;;;;;;3.70;1.80;;;;;;;;;;5071260;28;20202;-54
2023/09/06 12:36:45;;;;;;;3.83;1.70;;;;;;;;;;5071349;28;20241;-54
2023/09/06 12:39:11;;;;;;;2.70;1.60;;;;;;;;;;5071273;28;20243;-54
2023/09/06 12:41:37;;;;;;;3.33;1.60;;;;;;;;;;5071344;28;20278;-55
2023/09/06 12:44:06;;;;;;;3.77;1.83;;;;;;;;;;5070865;28;20235;-54
2023/09/06 12:46:32;;;;;;;3.70;1.60;;;;;;;;;;5071258;28;20795;-54
2023/09/06 12:48:58;;;;;;;4.63;1.50;;;;;;;;;;5071354;28;20192;-55
2023/09/06 12:51:26;;;;;;;7.60;2.00;;;;;;;;;;5071553;28;20194;-54
2023/09/06 12:53:52;;;;;;;3.53;1.77;;;;;;;;;;5071413;28;20207;-54
2023/09/06 12:56:18;;;;;;;2.03;1.60;;;;;;;;;;5071611;28;20573;-54
2023/09/06 12:58:44;;;;;;;6.93;1.90;;;;;;;;;;5071471;28;20195;-54
2023/09/06 13:01:12;;;;;;;2.10;1.80;;;;;;;;;;5071837;28;20208;-54
2023/09/06 13:03:38;;;;;;;4.07;1.73;;;;;;;;;;5071453;28;20206;-54
2023/09/06 13:06:05;;;;;;;3.37;1.60;;;;;;;;;;5071720;28;20201;-54
2023/09/06 13:08:34;;;;;;;1.60;1.30;;;;;;;;;;5071486;28;20232;-55
2023/09/06 13:11:00;;;;;;;2.30;1.80;;;;;;;;;;5071583;28;20218;-55
2023/09/06 13:13:26;;;;;;;2.87;1.93;;;;;;;;;;5071737;28;20292;-55
2023/09/06 13:15:52;;;;;;;2.73;1.60;;;;;;;;;;5071282;28;20652;-55
2023/09/06 13:18:20;;;;;;;3.90;1.90;;;;;;;;;;5071109;28;20282;-55
2023/09/06 13:20:46;;;;;;;3.17;2.07;;;;;;;;;;5071274;28;20617;-55
2023/09/06 13:23:14;;;;;;;1.73;1.40;;;;;;;;;;5071549;28;20301;-55
2023/09/06 13:25:40;;;;;;;7.77;1.67;;;;;;;;;;5074228;28;20225;-55
2023/09/06 13:28:06;;;;;;;2.10;1.70;;;;;;;;;;5075598;28;20535;-55
2023/09/06 13:30:32;;;;;;;1.57;1.47;;;;;;;;;;5075400;28;20205;-55
2023/09/06 13:32:58;;;;;;;2.53;1.50;;;;;;;;;;5075204;28;20681;-54
2023/09/06 13:35:25;;;;;;;2.83;1.57;;;;;;;;;;5075676;28;20203;-55
2023/09/06 13:37:51;;;;;;;3.60;1.60;;;;;;;;;;5075246;28;20231;-55
2023/09/06 13:40:17;;;;;;;1.93;1.50;;;;;;;;;;5075404;28;20634;-55
2023/09/06 13:42:43;;;;;;;2.03;1.77;;;;;;;;;;5075127;28;20272;-55
2023/09/06 13:45:10;;;;;;;2.67;1.87;;;;;;;;;;5075332;28;20223;-54
2023/09/06 13:47:36;;;;;;;5.50;1.60;;;;;;;;;;5075251;28;20230;-55
2023/09/06 13:50:02;;;;;;;2.80;1.50;;;;;;;;;;5075111;28;20226;-54
2023/09/06 13:52:30;;;;;;;3.07;1.37;;;;;;;;;;5075057;28;20758;-55
2023/09/06 13:54:56;;;;;;;2.47;1.80;;;;;;;;;;5074798;28;20235;-54
2023/09/06 13:57:22;;;;;;;3.83;1.70;;;;;;;;;;5075138;28;20199;-54
2023/09/06 13:59:48;;;;;;;3.83;1.60;;;;;;;;;;5074795;28;20210;-55
2023/09/06 14:02:14;;;;;;;2.00;1.50;;;;;;;;;;5074889;28;20674;-54
2023/09/06 14:04:40;;;;;;;2.53;1.17;;;;;;;;;;5074515;28;20599;-54
2023/09/06 14:07:07;;;;;;;2.30;1.50;;;;;;;;;;5074584;28;20199;-54
2023/09/06 14:09:34;;;;;;;2.00;1.47;;;;;;;;;;5074726;28;20197;-54
2023/09/06 14:12:00;;;;;;;1.70;1.60;;;;;;;;;;5074514;28;20207;-55
2023/09/06 14:14:26;;;;;;;3.53;1.67;;;;;;;;;;5074744;28;20253;-55
2023/09/06 14:16:54;;;;;;;1.67;1.40;;;;;;;;;;5074477;28;20205;-54
2023/09/06 14:19:20;;;;;;;3.87;1.40;;;;;;;;;;5074521;28;20199;-54
2023/09/06 14:21:46;;;;;;;1.70;1.60;;;;;;;;;;5074217;28;20207;-54
2023/09/06 14:24:13;;;;;;;3.20;1.60;;;;;;;;;;5072299;28;20750;-53
2023/09/06 14:26:42;;;;;;;6.87;1.53;;;;;;;;;;5073885;28;20203;-54
2023/09/06 14:29:09;;;;;;;3.03;1.70;;;;;;;;;;5074158;28;20206;-54
2023/09/06 14:31:35;;;;;;;2.27;1.43;;;;;;;;;;5073556;28;20550;-54
2023/09/06 14:34:01;;;;;;;4.43;1.60;;;;;;;;;;5073394;28;20195;-54
2023/09/06 14:36:27;;;;;;;3.63;1.70;;;;;;;;;;5072620;28;20248;-54
2023/09/06 14:38:54;;;;;;;3.23;1.90;;;;;;;;;;5073599;28;20235;-54
2023/09/06 14:41:21;;;;;;;3.50;1.70;;;;;;;;;;5073543;28;20616;-53
2023/09/06 14:43:49;;;;;;;2.40;1.77;;;;;;;;;;5073389;28;20282;-53